sensor_id;sensor_type;location;lat;lon;timestamp;pressure;altitude;pressure_sealevel;temperature;humidity
17950;BME280;9100;48.700;9.316;2022-08-02T00:00:41;97879.3;;;20.05;100
17950;BME280;9100;48.700;9.316;2022-08-02T00:01:42;97875.9;;;20.04;100
17950;BME280;9100;48.700;9.316;2022-08-02T00:02:42;97886.8;;;20.06;100
17950;BME280;9100;48.700;9.316;2022-08-02T00:03:42;97888.4;;;20.07;100
17950;BME280;9100;48.700;9.316;2022-08-02T00:04:13;97877.20000000001;;;20.07;100
17950;BME280;9100;48.700;9.316;2022-08-02T00:04:41;97879.6;;;20.08;100
17950;BME280;9100;48.700;9.316;2022-08-02T00:05:41;97865.4;;;19.99;100
17950;BME280;9100;48.700;9.316;2022-08-02T00:06:41;97876.5;;;20.11;100
17950;BME280;9100;48.700;9.316;2022-08-02T00:07:41;97880.9;;;20.11;100
17950;BME280;9100;48.700;9.316;2022-08-02T00:08:41;97883.8;;;20.09;100
17950;BME280;9100;48.700;9.316;2022-08-02T00:09:13;97871.6;;;20.1;100
17950;BME280;9100;48.700;9.316;2022-08-02T00:09:42;97879.4;;;20.1;100
17950;BME280;9100;48.700;9.316;2022-08-02T00:10:41;97871;;;20.08;100
17950;BME280;9100;48.700;9.316;2022-08-02T00:11:41;97878;;;20.07;100
17950;BME280;9100;48.700;9.316;2022-08-02T00:12:41;97869.7;;;20.05;100
17950;BME280;9100;48.700;9.316;2022-08-02T00:13:41;97872.7;;;20.02;100
17950;BME280;9100;48.700;9.316;2022-08-02T00:14:13;97872.2;;;20;100
17950;BME280;9100;48.700;9.316;2022-08-02T00:14:41;97862.59999999999;;;20.01;100
17950;BME280;9100;48.700;9.316;2022-08-02T00:15:42;97862.3;;;19.97;100
17950;BME280;9100;48.700;9.316;2022-08-02T00:16:41;97866.3;;;19.93;100
17950;BME280;9100;48.700;9.316;2022-08-02T00:17:42;97861.40000000001;;;19.92;100
17950;BME280;9100;48.700;9.316;2022-08-02T00:18:41;97859.79999999999;;;19.91;100
17950;BME280;9100;48.700;9.316;2022-08-02T00:19:13;97862.40000000001;;;19.91;100
17950;BME280;9100;48.700;9.316;2022-08-02T00:19:41;97864.8;;;19.92;100
17950;BME280;9100;48.700;9.316;2022-08-02T00:20:41;97862.7;;;19.94;100
17950;BME280;9100;48.700;9.316;2022-08-02T00:21:41;97866.7;;;19.97;100
17950;BME280;9100;48.700;9.316;2022-08-02T00:22:41;97871.6;;;19.98;100
17950;BME280;9100;48.700;9.316;2022-08-02T00:23:41;97872.7;;;19.97;100
17950;BME280;9100;48.700;9.316;2022-08-02T00:24:13;97871.6;;;19.98;100
17950;BME280;9100;48.700;9.316;2022-08-02T00:24:41;97875.8;;;19.99;100
17950;BME280;9100;48.700;9.316;2022-08-02T00:25:41;97869;;;19.98;100
17950;BME280;9100;48.700;9.316;2022-08-02T00:26:41;97874.2;;;19.98;100
17950;BME280;9100;48.700;9.316;2022-08-02T00:27:41;97881;;;19.99;100
17950;BME280;9100;48.700;9.316;2022-08-02T00:28:41;97882;;;19.98;100
17950;BME280;9100;48.700;9.316;2022-08-02T00:29:13;97880.2;;;19.99;100
17950;BME280;9100;48.700;9.316;2022-08-02T00:29:41;97881.8;;;20;100
17950;BME280;9100;48.700;9.316;2022-08-02T00:30:41;97881;;;19.99;100
17950;BME280;9100;48.700;9.316;2022-08-02T00:31:41;97878.9;;;19.96;100
17950;BME280;9100;48.700;9.316;2022-08-02T00:32:41;97884.6;;;19.98;100
17950;BME280;9100;48.700;9.316;2022-08-02T00:33:41;97874.7;;;19.95;100
17950;BME280;9100;48.700;9.316;2022-08-02T00:34:13;97878.3;;;19.94;100
17950;BME280;9100;48.700;9.316;2022-08-02T00:34:41;97878.3;;;19.94;100
17950;BME280;9100;48.700;9.316;2022-08-02T00:35:42;97878.3;;;19.94;100
17950;BME280;9100;48.700;9.316;2022-08-02T00:36:41;97885.79999999999;;;19.96;100
17950;BME280;9100;48.700;9.316;2022-08-02T00:37:41;97886.1;;;19.94;100
17950;BME280;9100;48.700;9.316;2022-08-02T00:38:42;97881.9;;;19.93;100
17950;BME280;9100;48.700;9.316;2022-08-02T00:39:13;97887.09999999999;;;19.93;100
17950;BME280;9100;48.700;9.316;2022-08-02T00:39:41;97887.90000000001;;;19.94;100
17950;BME280;9100;48.700;9.316;2022-08-02T00:40:45;97895.4;;;19.95;100
17950;BME280;9100;48.700;9.316;2022-08-02T00:41:45;97887.90000000001;;;19.94;100
17950;BME280;9100;48.700;9.316;2022-08-02T00:42:41;97886.1;;;19.94;100
17950;BME280;9100;48.700;9.316;2022-08-02T00:43:42;97883.5;;;19.94;100
17950;BME280;9100;48.700;9.316;2022-08-02T00:44:13;97888.7;;;19.94;100
17950;BME280;9100;48.700;9.316;2022-08-02T00:44:41;97882.5;;;19.95;100
17950;BME280;9100;48.700;9.316;2022-08-02T00:45:41;97890.3;;;19.95;100
17950;BME280;9100;48.700;9.316;2022-08-02T00:46:41;97883.5;;;19.94;100
17950;BME280;9100;48.700;9.316;2022-08-02T00:47:41;97885;;;19.95;100
17950;BME280;9100;48.700;9.316;2022-08-02T00:48:41;97883.5;;;19.94;100
17950;BME280;9100;48.700;9.316;2022-08-02T00:49:13;97886.1;;;19.94;100
17950;BME280;9100;48.700;9.316;2022-08-02T00:49:41;97883.3;;;19.96;100
17950;BME280;9100;48.700;9.316;2022-08-02T00:50:41;97878.9;;;19.96;100
17950;BME280;9100;48.700;9.316;2022-08-02T00:51:41;97883.8;;;19.98;100
17950;BME280;9100;48.700;9.316;2022-08-02T00:52:41;97877;;;19.97;100
17950;BME280;9100;48.700;9.316;2022-08-02T00:53:41;97878.09999999999;;;19.96;100
17950;BME280;9100;48.700;9.316;2022-08-02T00:54:13;97874.7;;;19.95;100
17950;BME280;9100;48.700;9.316;2022-08-02T00:54:41;97876.3;;;19.96;100
17950;BME280;9100;48.700;9.316;2022-08-02T00:55:41;97875.5;;;19.96;100
17950;BME280;9100;48.700;9.316;2022-08-02T00:56:41;97870.3;;;19.96;100
17950;BME280;9100;48.700;9.316;2022-08-02T00:57:41;97869.5;;;19.95;100
17950;BME280;9100;48.700;9.316;2022-08-02T00:58:41;97874.7;;;19.95;100
17950;BME280;9100;48.700;9.316;2022-08-02T00:59:13;97869.5;;;19.95;100
17950;BME280;9100;48.700;9.316;2022-08-02T00:59:41;97868.5;;;19.96;100
17950;BME280;9100;48.700;9.316;2022-08-02T01:00:41;97865.9;;;19.96;100
17950;BME280;9100;48.700;9.316;2022-08-02T01:01:41;97863.5;;;19.95;100
17950;BME280;9100;48.700;9.316;2022-08-02T01:02:42;97858.3;;;19.95;100
17950;BME280;9100;48.700;9.316;2022-08-02T01:03:41;97868.7;;;19.95;100
17950;BME280;9100;48.700;9.316;2022-08-02T01:04:13;97862.7;;;19.94;100
17950;BME280;9100;48.700;9.316;2022-08-02T01:04:41;97864.09999999999;;;19.97;100
17950;BME280;9100;48.700;9.316;2022-08-02T01:05:41;97864.9;;;19.97;100
17950;BME280;9100;48.700;9.316;2022-08-02T01:06:41;97863.5;;;19.95;100
17950;BME280;9100;48.700;9.316;2022-08-02T01:07:41;97862;;;19.94;100
17950;BME280;9100;48.700;9.316;2022-08-02T01:08:41;97864.20000000001;;;19.9;100
17950;BME280;9100;48.700;9.316;2022-08-02T01:09:13;97861.2;;;19.93;100
17950;BME280;9100;48.700;9.316;2022-08-02T01:09:41;97860.1;;;19.94;100
17950;BME280;9100;48.700;9.316;2022-08-02T01:10:41;97864.5;;;19.94;100
17950;BME280;9100;48.700;9.316;2022-08-02T01:11:41;97853.9;;;19.95;100
17950;BME280;9100;48.700;9.316;2022-08-02T01:12:41;97859.1;;;19.95;100
17950;BME280;9100;48.700;9.316;2022-08-02T01:13:41;97855;;;19.94;100
17950;BME280;9100;48.700;9.316;2022-08-02T01:14:13;97859.6;;;19.92;100
17950;BME280;9100;48.700;9.316;2022-08-02T01:14:42;97859.40000000001;;;19.94;100
17950;BME280;9100;48.700;9.316;2022-08-02T01:15:42;97859.40000000001;;;19.94;100
17950;BME280;9100;48.700;9.316;2022-08-02T01:16:42;97859.6;;;19.92;100
17950;BME280;9100;48.700;9.316;2022-08-02T01:17:43;97860.6;;;19.91;100
17950;BME280;9100;48.700;9.316;2022-08-02T01:18:42;97863.2;;;19.91;100
17950;BME280;9100;48.700;9.316;2022-08-02T01:19:28;97861.6;;;19.9;100
17950;BME280;9100;48.700;9.316;2022-08-02T01:19:42;97860.6;;;19.91;100
17950;BME280;9100;48.700;9.316;2022-08-02T01:20:45;97859.6;;;19.92;100
17950;BME280;9100;48.700;9.316;2022-08-02T01:21:47;97864;;;19.92;100
17950;BME280;9100;48.700;9.316;2022-08-02T01:22:47;97856.4;;;19.9;100
17950;BME280;9100;48.700;9.316;2022-08-02T01:23:44;97853.8;;;19.9;100
17950;BME280;9100;48.700;9.316;2022-08-02T01:24:16;97855.6;;;19.9;100
17950;BME280;9100;48.700;9.316;2022-08-02T01:24:47;97852.8;;;19.91;100
17950;BME280;9100;48.700;9.316;2022-08-02T01:25:46;97853.4;;;19.93;100
17950;BME280;9100;48.700;9.316;2022-08-02T01:26:42;97861.2;;;19.93;100
17950;BME280;9100;48.700;9.316;2022-08-02T01:27:45;97858.6;;;19.93;100
17950;BME280;9100;48.700;9.316;2022-08-02T01:28:42;97864.20000000001;;;19.9;100
17950;BME280;9100;48.700;9.316;2022-08-02T01:29:16;97862.59999999999;;;19.89;100
17950;BME280;9100;48.700;9.316;2022-08-02T01:29:42;97862.09999999999;;;19.87;100
17950;BME280;9100;48.700;9.316;2022-08-02T01:30:42;97858.90000000001;;;19.85;100
17950;BME280;9100;48.700;9.316;2022-08-02T01:31:43;97862.5;;;19.84;100
17950;BME280;9100;48.700;9.316;2022-08-02T01:32:42;97860.40000000001;;;19.81;100
17950;BME280;9100;48.700;9.316;2022-08-02T01:33:43;97866.6;;;19.8;100
17950;BME280;9100;48.700;9.316;2022-08-02T01:34:15;97862.5;;;19.79;100
17950;BME280;9100;48.700;9.316;2022-08-02T01:34:42;97864;;;19.8;100
17950;BME280;9100;48.700;9.316;2022-08-02T01:35:43;97873.40000000001;;;19.81;100
17950;BME280;9100;48.700;9.316;2022-08-02T01:36:42;97874.2;;;19.81;100
17950;BME280;9100;48.700;9.316;2022-08-02T01:37:42;97870.6;;;19.82;100
17950;BME280;9100;48.700;9.316;2022-08-02T01:38:42;97868.2;;;19.81;100
17950;BME280;9100;48.700;9.316;2022-08-02T01:39:14;97873.40000000001;;;19.81;100
17950;BME280;9100;48.700;9.316;2022-08-02T01:39:42;97872.6;;;19.8;100
17950;BME280;9100;48.700;9.316;2022-08-02T01:40:43;97879.4;;;19.81;100
17950;BME280;9100;48.700;9.316;2022-08-02T01:41:41;97880.6;;;19.79;100
17950;BME280;9100;48.700;9.316;2022-08-02T01:42:43;97878.7;;;19.74;100
17950;BME280;9100;48.700;9.316;2022-08-02T01:43:41;97876;;;19.69;100
17950;BME280;9100;48.700;9.316;2022-08-02T01:44:13;97885.90000000001;;;19.67;100
17950;BME280;9100;48.700;9.316;2022-08-02T01:44:41;97885.1;;;19.67;100
17950;BME280;9100;48.700;9.316;2022-08-02T01:45:41;97886.3;;;19.64;100
17950;BME280;9100;48.700;9.316;2022-08-02T01:46:41;97882.4;;;19.62;100
17950;BME280;9100;48.700;9.316;2022-08-02T01:47:41;97886.8;;;19.61;100
17950;BME280;9100;48.700;9.316;2022-08-02T01:48:41;97882;;;19.58;100
17950;BME280;9100;48.700;9.316;2022-08-02T01:49:14;97881.5;;;19.56;100
17950;BME280;9100;48.700;9.316;2022-08-02T01:49:42;97877.9;;;19.57;100
17950;BME280;9100;48.700;9.316;2022-08-02T01:50:41;97888.5;;;19.56;100
17950;BME280;9100;48.700;9.316;2022-08-02T01:51:41;97881.7;;;19.55;100
17950;BME280;9100;48.700;9.316;2022-08-02T01:52:42;97884.3;;;19.55;100
17950;BME280;9100;48.700;9.316;2022-08-02T01:53:42;97880.2;;;19.54;100
17950;BME280;9100;48.700;9.316;2022-08-02T01:54:14;97879.1;;;19.55;100
17950;BME280;9100;48.700;9.316;2022-08-02T01:54:42;97882.3;;;19.57;100
17950;BME280;9100;48.700;9.316;2022-08-02T01:55:42;97881.2;;;19.58;100
17950;BME280;9100;48.700;9.316;2022-08-02T01:56:42;97879.1;;;19.55;100
17950;BME280;9100;48.700;9.316;2022-08-02T01:57:44;97882.7;;;19.54;100
17950;BME280;9100;48.700;9.316;2022-08-02T01:58:41;97884.79999999999;;;19.52;100
17950;BME280;9100;48.700;9.316;2022-08-02T01:59:15;97891.5;;;19.53;100
17950;BME280;9100;48.700;9.316;2022-08-02T01:59:42;97884.79999999999;;;19.52;100
17950;BME280;9100;48.700;9.316;2022-08-02T02:00:42;97890;;;19.52;100
17950;BME280;9100;48.700;9.316;2022-08-02T02:01:41;97884.79999999999;;;19.52;100
17950;BME280;9100;48.700;9.316;2022-08-02T02:02:42;97897.5;;;19.53;100
17950;BME280;9100;48.700;9.316;2022-08-02T02:03:41;97887.09999999999;;;19.53;100
17950;BME280;9100;48.700;9.316;2022-08-02T02:04:15;97890.5;;;19.54;100
17950;BME280;9100;48.700;9.316;2022-08-02T02:04:42;97885.90000000001;;;19.56;100
17950;BME280;9100;48.700;9.316;2022-08-02T02:05:41;97887.5;;;19.57;100
17950;BME280;9100;48.700;9.316;2022-08-02T02:06:42;97889;;;19.58;100
17950;BME280;9100;48.700;9.316;2022-08-02T02:07:42;97887.5;;;19.57;100
17950;BME280;9100;48.700;9.316;2022-08-02T02:08:42;97893.7;;;19.56;100
17950;BME280;9100;48.700;9.316;2022-08-02T02:09:13;97886.90000000001;;;19.55;100
17950;BME280;9100;48.700;9.316;2022-08-02T02:09:41;97889.5;;;19.55;100
17950;BME280;9100;48.700;9.316;2022-08-02T02:10:41;97892.1;;;19.55;100
17950;BME280;9100;48.700;9.316;2022-08-02T02:11:41;97894.7;;;19.55;100
17950;BME280;9100;48.700;9.316;2022-08-02T02:12:42;97896.3;;;19.56;100
17950;BME280;9100;48.700;9.316;2022-08-02T02:13:41;97892.1;;;19.55;100
17950;BME280;9100;48.700;9.316;2022-08-02T02:14:13;97893.9;;;19.54;100
17950;BME280;9100;48.700;9.316;2022-08-02T02:14:42;97901.4;;;19.56;100
17950;BME280;9100;48.700;9.316;2022-08-02T02:15:42;97890.3;;;19.55;100
17950;BME280;9100;48.700;9.316;2022-08-02T02:16:43;97899.90000000001;;;19.55;100
17950;BME280;9100;48.700;9.316;2022-08-02T02:17:43;97904.2;;;19.54;100
17950;BME280;9100;48.700;9.316;2022-08-02T02:18:41;97901.9;;;19.53;100
17950;BME280;9100;48.700;9.316;2022-08-02T02:19:14;97902.70000000001;;;19.53;100
17950;BME280;9100;48.700;9.316;2022-08-02T02:19:41;97907.1;;;19.53;100
17950;BME280;9100;48.700;9.316;2022-08-02T02:20:41;97891.5;;;19.53;100
17950;BME280;9100;48.700;9.316;2022-08-02T02:21:41;97898.29999999999;;;19.54;100
17950;BME280;9100;48.700;9.316;2022-08-02T02:22:42;97890.7;;;19.52;100
17950;BME280;9100;48.700;9.316;2022-08-02T02:23:41;97894.3;;;19.51;100
17950;BME280;9100;48.700;9.316;2022-08-02T02:24:13;97901.3;;;19.51;100
17950;BME280;9100;48.700;9.316;2022-08-02T02:24:42;97888.4;;;19.51;100
17950;BME280;9100;48.700;9.316;2022-08-02T02:25:42;97897.7;;;19.52;100
17950;BME280;9100;48.700;9.316;2022-08-02T02:26:41;97896.40000000001;;;19.49;100
17950;BME280;9100;48.700;9.316;2022-08-02T02:27:42;97892;;;19.5;100
17950;BME280;9100;48.700;9.316;2022-08-02T02:28:41;97891.2;;;19.49;100
17950;BME280;9100;48.700;9.316;2022-08-02T02:29:13;97900.8;;;19.49;100
17950;BME280;9100;48.700;9.316;2022-08-02T02:29:42;97887.59999999999;;;19.5;100
17950;BME280;9100;48.700;9.316;2022-08-02T02:30:42;97884.2;;;19.5;100
17950;BME280;9100;48.700;9.316;2022-08-02T02:31:43;97897.40000000001;;;19.48;100
17950;BME280;9100;48.700;9.316;2022-08-02T02:32:42;97890.9;;;19.46;100
17950;BME280;9100;48.700;9.316;2022-08-02T02:33:43;97890.9;;;19.46;100
17950;BME280;9100;48.700;9.316;2022-08-02T02:34:15;97893.7;;;19.44;100
17950;BME280;9100;48.700;9.316;2022-08-02T02:34:42;97878.9;;;19.45;100
17950;BME280;9100;48.700;9.316;2022-08-02T02:35:41;97888.5;;;19.44;100
17950;BME280;9100;48.700;9.316;2022-08-02T02:36:44;97884.1;;;19.45;100
17950;BME280;9100;48.700;9.316;2022-08-02T02:37:41;97878.09999999999;;;19.44;100
17950;BME280;9100;48.700;9.316;2022-08-02T02:38:41;97882.5;;;19.44;100
17950;BME280;9100;48.700;9.316;2022-08-02T02:39:14;97881.7;;;19.43;100
17950;BME280;9100;48.700;9.316;2022-08-02T02:39:42;97877.3;;;19.44;100
17950;BME280;9100;48.700;9.316;2022-08-02T02:40:42;97883.3;;;19.44;100
17950;BME280;9100;48.700;9.316;2022-08-02T02:41:42;97884.1;;;19.45;100
17950;BME280;9100;48.700;9.316;2022-08-02T02:42:42;97890.09999999999;;;19.45;100
17950;BME280;9100;48.700;9.316;2022-08-02T02:43:42;97884.1;;;19.45;100
17950;BME280;9100;48.700;9.316;2022-08-02T02:44:15;97889.3;;;19.45;100
17950;BME280;9100;48.700;9.316;2022-08-02T02:44:42;97890.09999999999;;;19.45;100
17950;BME280;9100;48.700;9.316;2022-08-02T02:45:41;97880.5;;;19.46;100
17950;BME280;9100;48.700;9.316;2022-08-02T02:46:42;97884.90000000001;;;19.45;100
17950;BME280;9100;48.700;9.316;2022-08-02T02:47:42;97884.90000000001;;;19.45;100
17950;BME280;9100;48.700;9.316;2022-08-02T02:48:41;97890.9;;;19.46;100
17950;BME280;9100;48.700;9.316;2022-08-02T02:49:13;97890.9;;;19.46;100
17950;BME280;9100;48.700;9.316;2022-08-02T02:49:42;97878.7;;;19.46;100
17950;BME280;9100;48.700;9.316;2022-08-02T02:50:41;97882.1;;;19.47;100
17950;BME280;9100;48.700;9.316;2022-08-02T02:51:41;97887.2;;;19.47;100
17950;BME280;9100;48.700;9.316;2022-08-02T02:52:42;97890.9;;;19.46;100
17950;BME280;9100;48.700;9.316;2022-08-02T02:53:41;97889.3;;;19.45;100
17950;BME280;9100;48.700;9.316;2022-08-02T02:54:14;97886.2;;;19.43;100
17950;BME280;9100;48.700;9.316;2022-08-02T02:54:42;97883.3;;;19.44;100
17950;BME280;9100;48.700;9.316;2022-08-02T02:55:42;97886.2;;;19.43;100
17950;BME280;9100;48.700;9.316;2022-08-02T02:56:41;97877;;;19.4;100
17950;BME280;9100;48.700;9.316;2022-08-02T02:57:42;97844;;;19.12;100
17950;BME280;9100;48.700;9.316;2022-08-02T02:58:41;97886;;;19.37;100
17950;BME280;9100;48.700;9.316;2022-08-02T02:59:13;97889.59999999999;;;19.36;100
17950;BME280;9100;48.700;9.316;2022-08-02T02:59:42;97888.59999999999;;;19.37;100
17950;BME280;9100;48.700;9.316;2022-08-02T03:00:41;97879.2;;;19.36;100
17950;BME280;9100;48.700;9.316;2022-08-02T03:01:41;97881.8;;;19.36;100
17950;BME280;9100;48.700;9.316;2022-08-02T03:02:44;97886.2;;;19.36;100
17950;BME280;9100;48.700;9.316;2022-08-02T03:03:42;97883.3;;;19.32;100
17950;BME280;9100;48.700;9.316;2022-08-02T03:04:13;97885.40000000001;;;19.3;100
17950;BME280;9100;48.700;9.316;2022-08-02T03:04:41;97885.1;;;19.32;100
17950;BME280;9100;48.700;9.316;2022-08-02T03:05:41;97886.40000000001;;;19.29;100
17950;BME280;9100;48.700;9.316;2022-08-02T03:06:42;97880;;;19.25;100
17950;BME280;9100;48.700;9.316;2022-08-02T03:07:41;97883.1;;;19.22;100
17950;BME280;9100;48.700;9.316;2022-08-02T03:08:42;97875.5;;;19.21;100
17950;BME280;9100;48.700;9.316;2022-08-02T03:09:13;97877.4;;;19.2;100
17950;BME280;9100;48.700;9.316;2022-08-02T03:09:42;97874.8;;;19.2;100
17950;BME280;9100;48.700;9.316;2022-08-02T03:10:41;97874;;;19.2;100
17950;BME280;9100;48.700;9.316;2022-08-02T03:11:42;97876.8;;;19.18;100
17950;BME280;9100;48.700;9.316;2022-08-02T03:12:41;97878;;;19.16;100
17950;BME280;9100;48.700;9.316;2022-08-02T03:13:42;97864.8;;;19.12;100
17950;BME280;9100;48.700;9.316;2022-08-02T03:14:13;97863.2;;;19.11;100
17950;BME280;9100;48.700;9.316;2022-08-02T03:14:42;97872.7;;;19.11;100
17950;BME280;9100;48.700;9.316;2022-08-02T03:15:42;97865.20000000001;;;19.09;100
17950;BME280;9100;48.700;9.316;2022-08-02T03:16:42;97865.59999999999;;;19.06;100
17950;BME280;9100;48.700;9.316;2022-08-02T03:17:42;97863.5;;;19.03;100
17950;BME280;9100;48.700;9.316;2022-08-02T03:18:42;97866.4;;;19.02;100
17950;BME280;9100;48.700;9.316;2022-08-02T03:19:13;97869.9;;;19.01;100
17950;BME280;9100;48.700;9.316;2022-08-02T03:19:42;97868.1;;;19.01;100
17950;BME280;9100;48.700;9.316;2022-08-02T03:20:42;97866.6;;;19;100
17950;BME280;9100;48.700;9.316;2022-08-02T03:21:42;97867;;;18.97;100
17950;BME280;9100;48.700;9.316;2022-08-02T03:22:42;97862.8;;;18.96;100
17950;BME280;9100;48.700;9.316;2022-08-02T03:23:42;97869.8;;;18.96;100
17950;BME280;9100;48.700;9.316;2022-08-02T03:24:13;97863.3;;;18.93;100
17950;BME280;9100;48.700;9.316;2022-08-02T03:24:41;97859.1;;;18.92;100
17950;BME280;9100;48.700;9.316;2022-08-02T03:25:41;97862.7;;;18.91;100
17950;BME280;9100;48.700;9.316;2022-08-02T03:26:42;97863.4;;;18.86;100
17950;BME280;9100;48.700;9.316;2022-08-02T03:27:42;97863.59999999999;;;18.85;100
17950;BME280;9100;48.700;9.316;2022-08-02T03:28:42;97865.7;;;18.83;100
17950;BME280;9100;48.700;9.316;2022-08-02T03:29:13;97858.90000000001;;;18.82;100
17950;BME280;9100;48.700;9.316;2022-08-02T03:29:42;97867.5;;;18.82;100
17950;BME280;9100;48.700;9.316;2022-08-02T03:30:41;97864.09999999999;;;18.82;100
17950;BME280;9100;48.700;9.316;2022-08-02T03:31:42;97859.40000000001;;;18.79;100
17950;BME280;9100;48.700;9.316;2022-08-02T03:32:43;97862.2;;;18.77;100
17950;BME280;9100;48.700;9.316;2022-08-02T03:33:41;97860.79999999999;;;18.75;100
17950;BME280;9100;48.700;9.316;2022-08-02T03:34:13;97865.4;;;18.73;100
17950;BME280;9100;48.700;9.316;2022-08-02T03:34:41;97861.8;;;18.74;100
17950;BME280;9100;48.700;9.316;2022-08-02T03:35:42;97864.4;;;18.74;100
17950;BME280;9100;48.700;9.316;2022-08-02T03:36:42;97862.8;;;18.73;100
17950;BME280;9100;48.700;9.316;2022-08-02T03:37:42;97874.2;;;18.72;100
17950;BME280;9100;48.700;9.316;2022-08-02T03:38:42;97870.1;;;18.71;100
17950;BME280;9100;48.700;9.316;2022-08-02T03:39:13;97873.7;;;18.7;100
17950;BME280;9100;48.700;9.316;2022-08-02T03:39:42;97864.9;;;18.71;100
17950;BME280;9100;48.700;9.316;2022-08-02T03:40:42;97872.7;;;18.71;100
17950;BME280;9100;48.700;9.316;2022-08-02T03:41:42;97872.1;;;18.69;100
17950;BME280;9100;48.700;9.316;2022-08-02T03:42:42;97871.3;;;18.68;100
17950;BME280;9100;48.700;9.316;2022-08-02T03:43:42;97872.29999999999;;;18.67;100
17950;BME280;9100;48.700;9.316;2022-08-02T03:44:13;97868.9;;;18.67;100
17950;BME280;9100;48.700;9.316;2022-08-02T03:44:42;97867.9;;;18.68;100
17950;BME280;9100;48.700;9.316;2022-08-02T03:45:43;97873.1;;;18.68;100
17950;BME280;9100;48.700;9.316;2022-08-02T03:46:42;97879.8;;;18.69;100
17950;BME280;9100;48.700;9.316;2022-08-02T03:47:42;97874.7;;;18.69;100
17950;BME280;9100;48.700;9.316;2022-08-02T03:48:41;97874.7;;;18.69;100
17950;BME280;9100;48.700;9.316;2022-08-02T03:49:13;97871.1;;;18.7;100
17950;BME280;9100;48.700;9.316;2022-08-02T03:49:42;97873.40000000001;;;18.71;100
17950;BME280;9100;48.700;9.316;2022-08-02T03:50:42;97874.2;;;18.72;100
17950;BME280;9100;48.700;9.316;2022-08-02T03:51:41;97876.59999999999;;;18.73;100
17950;BME280;9100;48.700;9.316;2022-08-02T03:52:44;97870.6;;;18.73;100
17950;BME280;9100;48.700;9.316;2022-08-02T03:53:42;97871.6;;;18.72;100
17950;BME280;9100;48.700;9.316;2022-08-02T03:54:13;97866.5;;;18.72;100
17950;BME280;9100;48.700;9.316;2022-08-02T03:54:42;97865.4;;;18.73;100
17950;BME280;9100;48.700;9.316;2022-08-02T03:55:42;97870.6;;;18.73;100
17950;BME280;9100;48.700;9.316;2022-08-02T03:56:42;97868.3;;;18.71;100
17950;BME280;9100;48.700;9.316;2022-08-02T03:57:42;97870.1;;;18.71;100
17950;BME280;9100;48.700;9.316;2022-08-02T03:58:42;97829;;;18.45;100
17950;BME280;9100;48.700;9.316;2022-08-02T03:59:13;97867.5;;;18.71;100
17950;BME280;9100;48.700;9.316;2022-08-02T03:59:43;97870.6;;;18.73;100
17950;BME280;9100;48.700;9.316;2022-08-02T04:00:42;97872.2;;;18.74;100
17950;BME280;9100;48.700;9.316;2022-08-02T04:01:42;97878.2;;;18.74;100
17950;BME280;9100;48.700;9.316;2022-08-02T04:02:42;97867.6;;;18.76;100
17950;BME280;9100;48.700;9.316;2022-08-02T04:03:42;97873.29999999999;;;18.78;100
17950;BME280;9100;48.700;9.316;2022-08-02T04:04:13;97867.4;;;18.77;100
17950;BME280;9100;48.700;9.316;2022-08-02T04:04:42;97874.90000000001;;;18.79;100
17950;BME280;9100;48.700;9.316;2022-08-02T04:05:42;97872.90000000001;;;18.81;100
17950;BME280;9100;48.700;9.316;2022-08-02T04:06:42;97876.5;;;18.8;100
17950;BME280;9100;48.700;9.316;2022-08-02T04:07:42;97877.3;;;18.8;100
17950;BME280;9100;48.700;9.316;2022-08-02T04:08:42;97877.5;;;18.79;100
17950;BME280;9100;48.700;9.316;2022-08-02T04:09:13;97876.5;;;18.8;100
17950;BME280;9100;48.700;9.316;2022-08-02T04:09:42;97879.9;;;18.8;100
17950;BME280;9100;48.700;9.316;2022-08-02T04:10:42;97882.4;;;18.8;100
17950;BME280;9100;48.700;9.316;2022-08-02T04:11:42;97876.09999999999;;;18.76;100
17950;BME280;9100;48.700;9.316;2022-08-02T04:12:42;97877.5;;;18.79;100
17950;BME280;9100;48.700;9.316;2022-08-02T04:13:42;97878.8;;;18.81;100
17950;BME280;9100;48.700;9.316;2022-08-02T04:14:13;97877.8;;;18.82;100
17950;BME280;9100;48.700;9.316;2022-08-02T04:14:42;97888.8;;;18.84;100
17950;BME280;9100;48.700;9.316;2022-08-02T04:15:42;97890.09999999999;;;18.87;100
17950;BME280;9100;48.700;9.316;2022-08-02T04:16:42;97890.09999999999;;;18.87;100
17950;BME280;9100;48.700;9.316;2022-08-02T04:17:42;97896.90000000001;;;18.88;100
17950;BME280;9100;48.700;9.316;2022-08-02T04:18:44;97886;;;18.86;100
17950;BME280;9100;48.700;9.316;2022-08-02T04:19:14;97900.7;;;18.85;100
17950;BME280;9100;48.700;9.316;2022-08-02T04:19:42;97891.9;;;18.86;100
17950;BME280;9100;48.700;9.316;2022-08-02T04:20:42;97900.3;;;18.88;100
17950;BME280;9100;48.700;9.316;2022-08-02T04:21:42;97902.59999999999;;;18.9;100
17950;BME280;9100;48.700;9.316;2022-08-02T04:22:43;97905;;;18.92;100
17950;BME280;9100;48.700;9.316;2022-08-02T04:23:42;97906.8;;;18.91;100
17950;BME280;9100;48.700;9.316;2022-08-02T04:24:13;97902.20000000001;;;18.93;100
17950;BME280;9100;48.700;9.316;2022-08-02T04:24:43;97909.90000000001;;;18.93;100
17950;BME280;9100;48.700;9.316;2022-08-02T04:25:42;97906.1;;;18.96;100
17950;BME280;9100;48.700;9.316;2022-08-02T04:26:42;97866.5;;;18.72;100
17950;BME280;9100;48.700;9.316;2022-08-02T04:27:42;97906.4;;;18.99;100
17950;BME280;9100;48.700;9.316;2022-08-02T04:28:42;97913.7;;;18.97;100
17950;BME280;9100;48.700;9.316;2022-08-02T04:29:13;97913.09999999999;;;18.95;100
17950;BME280;9100;48.700;9.316;2022-08-02T04:29:42;97909.3;;;18.98;100
17950;BME280;9100;48.700;9.316;2022-08-02T04:30:42;97916;;;18.99;100
17950;BME280;9100;48.700;9.316;2022-08-02T04:31:42;97913.2;;;19;100
17950;BME280;9100;48.700;9.316;2022-08-02T04:32:42;97919.2;;;19.01;100
17950;BME280;9100;48.700;9.316;2022-08-02T04:33:42;97916.6;;;19.01;100